Time;durP1;ratioP1;P1;durP2;ratioP2;P2;SDS_P1;SDS_P2;PMS_P1;PMS_P2;Temp;Humidity;BMP_temperature;BMP_pressure;BME280_temperature;BME280_humidity;BME280_pressure;Samples;Min_cycle;Max_cycle;Signal;HPM_P1;HPM_P2
2021/03/03 00:00:41;;;;;;;17.70;7.65;;;9.70;99.90;;;;;;5095013;28;20484;-78
2021/03/03 00:03:07;;;;;;;17.13;7.03;;;9.70;99.90;;;;;;5092873;28;20161;-78
2021/03/03 00:05:33;;;;;;;12.90;6.88;;;9.70;99.90;;;;;;5093421;28;20081;-79
2021/03/03 00:07:59;;;;;;;14.80;7.55;;;9.70;99.90;;;;;;5094631;28;20579;-77
2021/03/03 00:10:25;;;;;;;14.07;7.05;;;9.70;99.90;;;;;;5093345;28;20024;-78
2021/03/03 00:12:50;;;;;;;17.50;7.75;;;9.70;99.90;;;;;;5093641;28;20401;-78
2021/03/03 00:15:16;;;;;;;14.98;6.82;;;9.60;99.90;;;;;;5093357;28;20465;-78
2021/03/03 00:17:42;;;;;;;14.55;6.65;;;9.70;99.90;;;;;;5076299;28;20039;-78
2021/03/03 00:20:09;;;;;;;10.93;6.68;;;9.70;99.90;;;;;;5093222;28;20417;-78
2021/03/03 00:22:35;;;;;;;19.67;6.68;;;9.70;99.90;;;;;;5094589;28;20094;-78
2021/03/03 00:25:01;;;;;;;13.43;6.38;;;9.70;99.90;;;;;;5093143;28;20085;-78
2021/03/03 00:27:27;;;;;;;17.90;7.55;;;9.70;99.90;;;;;;5094569;28;20060;-79
2021/03/03 00:29:53;;;;;;;16.52;7.47;;;9.80;99.90;;;;;;5094628;28;20052;-78
2021/03/03 00:32:19;;;;;;;17.15;7.00;;;9.70;99.90;;;;;;5094312;28;20097;-78
2021/03/03 00:34:44;;;;;;;15.60;6.70;;;9.70;99.90;;;;;;5094176;28;20488;-78
2021/03/03 00:37:10;;;;;;;22.73;7.53;;;9.70;99.90;;;;;;5093170;28;20040;-78
2021/03/03 00:39:36;;;;;;;15.50;7.22;;;9.70;99.90;;;;;;5094113;28;20549;-78
2021/03/03 00:42:02;;;;;;;13.73;7.43;;;9.70;99.90;;;;;;5094212;28;20416;-78
2021/03/03 00:44:29;;;;;;;11.35;7.22;;;9.70;99.90;;;;;;5094188;28;20076;-79
2021/03/03 00:46:54;;;;;;;18.08;8.07;;;9.60;99.90;;;;;;5097784;28;20016;-79
2021/03/03 00:49:21;;;;;;;17.58;8.80;;;9.40;99.90;;;;;;5093258;28;20036;-80
2021/03/03 00:51:47;;;;;;;20.75;8.95;;;9.40;99.90;;;;;;5092830;28;20499;-78
2021/03/03 00:54:13;;;;;;;20.50;8.98;;;9.20;99.90;;;;;;5092547;28;20109;-78
2021/03/03 00:56:40;;;;;;;21.75;10.00;;;9.10;99.90;;;;;;5093864;28;20040;-78
2021/03/03 00:59:10;;;;;;;17.42;9.65;;;9.00;99.90;;;;;;5092674;28;20070;-78
2021/03/03 01:01:37;;;;;;;22.35;9.30;;;9.00;99.90;;;;;;5075739;28;20480;-78
2021/03/03 01:04:07;;;;;;;15.30;8.02;;;9.00;99.90;;;;;;5092414;28;20036;-78
2021/03/03 01:06:37;;;;;;;15.90;8.27;;;9.00;99.90;;;;;;5092268;28;20438;-78
2021/03/03 01:09:04;;;;;;;13.98;7.35;;;9.10;99.90;;;;;;5075475;28;20032;-78
2021/03/03 01:11:33;;;;;;;22.13;8.75;;;9.00;99.90;;;;;;5092229;28;20028;-79
2021/03/03 01:14:01;;;;;;;18.13;7.57;;;8.90;99.90;;;;;;5093006;28;20038;-79
2021/03/03 01:16:29;;;;;;;19.60;8.55;;;8.80;99.90;;;;;;5091665;28;20107;-78
2021/03/03 01:19:04;;;;;;;17.20;7.90;;;8.70;99.90;;;;;;5091965;28;20554;-78
2021/03/03 01:21:30;;;;;;;14.48;8.13;;;8.50;99.90;;;;;;5093324;28;20027;-78
2021/03/03 01:23:55;;;;;;;17.52;9.02;;;8.50;99.90;;;;;;5092143;28;20036;-79
2021/03/03 01:26:21;;;;;;;17.33;8.10;;;8.50;99.90;;;;;;5092271;28;20028;-78
2021/03/03 01:28:47;;;;;;;17.23;8.07;;;8.40;99.90;;;;;;5093243;28;20058;-78
2021/03/03 01:31:13;;;;;;;20.13;8.38;;;8.40;99.90;;;;;;5093099;28;20028;-78
2021/03/03 01:33:39;;;;;;;18.42;8.73;;;8.40;99.90;;;;;;5091895;28;20036;-78
2021/03/03 01:36:06;;;;;;;16.10;8.23;;;8.40;99.90;;;;;;5093027;28;20028;-78
2021/03/03 01:38:32;;;;;;;17.17;9.25;;;8.30;99.90;;;;;;5091727;28;20511;-78
2021/03/03 01:40:58;;;;;;;14.65;7.43;;;8.30;99.90;;;;;;5074957;28;20059;-78
2021/03/03 01:43:24;;;;;;;14.35;8.35;;;8.30;99.90;;;;;;5093008;28;20381;-78
2021/03/03 01:45:51;;;;;;;18.35;8.98;;;8.30;99.90;;;;;;5092976;28;20020;-80
2021/03/03 01:48:17;;;;;;;17.80;8.77;;;8.30;99.90;;;;;;5091572;28;20381;-80
2021/03/03 01:50:43;;;;;;;19.05;8.27;;;8.30;99.90;;;;;;5091681;28;20461;-80
2021/03/03 01:53:09;;;;;;;21.58;8.65;;;8.30;99.90;;;;;;5091508;28;20085;-80
2021/03/03 01:55:36;;;;;;;13.68;7.13;;;8.30;99.90;;;;;;5092960;28;20024;-80
2021/03/03 01:58:03;;;;;;;20.25;8.93;;;8.30;99.90;;;;;;5092434;28;20048;-80
2021/03/03 02:00:29;;;;;;;16.05;7.57;;;8.30;99.90;;;;;;5094027;28;20040;-80
2021/03/03 02:02:55;;;;;;;17.73;8.40;;;8.30;99.90;;;;;;5093551;28;20031;-78
2021/03/03 02:05:21;;;;;;;15.20;8.60;;;8.30;99.90;;;;;;5092729;28;20021;-78
2021/03/03 02:08:02;;;;;;;14.43;7.97;;;8.30;99.90;;;;;;5074566;28;20025;-79
2021/03/03 02:10:54;;;;;;;15.90;7.93;;;8.30;99.90;;;;;;5092640;28;20024;-78
2021/03/03 02:13:38;;;;;;;23.10;8.13;;;8.40;99.90;;;;;;5091212;28;20031;-80
2021/03/03 02:16:06;;;;;;;18.73;8.68;;;8.40;99.90;;;;;;5092489;28;20039;-80
2021/03/03 02:18:35;;;;;;;16.20;8.52;;;8.40;99.90;;;;;;5091178;28;20044;-80
2021/03/03 02:21:01;;;;;;;16.73;8.25;;;8.40;99.90;;;;;;5092426;28;20480;-80
2021/03/03 02:23:45;;;;;;;21.23;8.83;;;8.40;99.90;;;;;;5092435;28;20111;-80
2021/03/03 02:26:13;;;;;;;17.45;8.73;;;8.50;99.90;;;;;;5093543;28;20333;-79
2021/03/03 02:28:39;;;;;;;23.20;8.43;;;8.50;99.90;;;;;;5096749;28;20432;-80
2021/03/03 02:31:06;;;;;;;14.98;8.48;;;8.60;99.90;;;;;;5095336;28;20020;-79
2021/03/03 02:33:33;;;;;;;17.80;8.82;;;8.60;99.90;;;;;;5078420;28;20035;-81
2021/03/03 02:35:59;;;;;;;22.98;9.13;;;8.60;99.90;;;;;;5095322;28;20112;-80
2021/03/03 02:38:26;;;;;;;20.77;8.40;;;8.60;99.90;;;;;;5096604;28;20478;-80
2021/03/03 02:40:52;;;;;;;23.05;9.07;;;8.70;99.90;;;;;;5096642;28;20111;-80
2021/03/03 02:43:20;;;;;;;15.65;8.02;;;8.70;99.90;;;;;;5096383;28;20040;-78
2021/03/03 02:45:48;;;;;;;18.35;8.77;;;8.60;99.90;;;;;;5096292;28;20039;-80
2021/03/03 02:48:15;;;;;;;18.30;9.18;;;8.60;99.90;;;;;;5096286;28;20020;-80
2021/03/03 02:50:42;;;;;;;20.15;9.10;;;8.50;99.90;;;;;;5096210;28;20031;-80
2021/03/03 02:53:08;;;;;;;17.52;8.75;;;8.50;99.90;;;;;;5094889;28;20563;-80
2021/03/03 02:55:34;;;;;;;15.35;8.23;;;8.50;99.90;;;;;;5096190;28;20076;-78
2021/03/03 02:58:03;;;;;;;24.48;9.07;;;8.50;99.90;;;;;;5095950;28;20040;-78
2021/03/03 03:00:38;;;;;;;18.27;8.75;;;8.50;99.90;;;;;;5094921;28;20154;-81
2021/03/03 03:03:20;;;;;;;17.25;8.45;;;8.50;99.90;;;;;;5096076;28;20106;-80
2021/03/03 03:05:52;;;;;;;20.08;9.27;;;8.50;99.90;;;;;;5094767;28;20035;-80
2021/03/03 03:08:21;;;;;;;21.95;10.10;;;8.50;99.90;;;;;;5095925;28;20041;-80
2021/03/03 03:10:47;;;;;;;18.25;8.63;;;8.50;99.90;;;;;;5094683;28;20059;-80
2021/03/03 03:13:17;;;;;;;17.10;9.32;;;8.50;99.90;;;;;;5095681;28;20024;-80
2021/03/03 03:15:45;;;;;;;16.52;8.85;;;8.50;99.90;;;;;;5096597;28;20035;-80
2021/03/03 03:18:16;;;;;;;20.48;9.45;;;8.40;99.90;;;;;;5095441;28;20040;-78
2021/03/03 03:20:44;;;;;;;18.45;8.70;;;8.40;99.90;;;;;;5094486;28;20471;-79
2021/03/03 03:23:11;;;;;;;20.23;9.30;;;8.30;99.90;;;;;;5095801;28;20020;-78
2021/03/03 03:25:39;;;;;;;21.20;8.68;;;8.20;99.90;;;;;;5094349;28;20036;-79
2021/03/03 03:28:05;;;;;;;17.95;8.32;;;8.20;99.90;;;;;;5095475;28;20472;-79
2021/03/03 03:30:32;;;;;;;18.27;8.73;;;8.30;99.90;;;;;;5094127;28;20372;-78
2021/03/03 03:32:59;;;;;;;15.13;8.32;;;8.20;99.90;;;;;;5095479;28;20383;-78
2021/03/03 03:35:29;;;;;;;18.38;8.70;;;8.20;99.90;;;;;;5094375;28;20035;-79
2021/03/03 03:37:56;;;;;;;18.73;8.27;;;8.30;99.90;;;;;;5092899;28;20051;-79
2021/03/03 03:40:23;;;;;;;18.23;8.55;;;8.30;99.90;;;;;;5095369;28;20024;-79
2021/03/03 03:42:54;;;;;;;14.40;7.85;;;8.30;99.90;;;;;;5095397;28;20028;-78
2021/03/03 03:45:24;;;;;;;17.55;9.15;;;8.20;99.90;;;;;;5095271;28;20038;-79
2021/03/03 03:47:50;;;;;;;18.90;9.60;;;8.20;99.90;;;;;;5095234;28;20024;-78
2021/03/03 03:50:17;;;;;;;17.10;8.77;;;8.30;99.90;;;;;;5093819;28;20062;-78
2021/03/03 03:52:43;;;;;;;18.15;9.02;;;8.30;99.90;;;;;;5093778;28;20096;-78
2021/03/03 03:55:10;;;;;;;15.85;9.48;;;8.30;99.90;;;;;;5094890;28;20040;-78
2021/03/03 03:57:48;;;;;;;17.40;9.20;;;8.30;99.90;;;;;;5094704;28;20040;-78
2021/03/03 04:00:16;;;;;;;19.35;10.27;;;8.40;99.90;;;;;;5094864;28;20095;-78
2021/03/03 04:02:42;;;;;;;18.70;8.20;;;8.40;99.90;;;;;;5094828;28;20024;-78
2021/03/03 04:05:10;;;;;;;15.70;8.35;;;8.30;99.90;;;;;;5094874;28;20574;-78
2021/03/03 04:07:36;;;;;;;15.63;9.45;;;8.20;99.90;;;;;;5094854;28;20060;-78
2021/03/03 04:10:03;;;;;;;18.08;8.40;;;8.20;99.90;;;;;;5093681;28;20437;-78
2021/03/03 04:12:29;;;;;;;17.40;9.38;;;8.20;99.90;;;;;;5094668;28;20464;-80
2021/03/03 04:14:55;;;;;;;18.50;8.73;;;8.20;99.90;;;;;;5094743;28;20039;-79
2021/03/03 04:17:20;;;;;;;18.23;8.60;;;8.20;99.90;;;;;;5094636;28;20023;-78
2021/03/03 04:19:46;;;;;;;23.35;10.32;;;8.20;99.90;;;;;;5093241;28;20058;-78
2021/03/03 04:22:13;;;;;;;16.98;8.98;;;8.20;99.90;;;;;;5094477;28;20081;-78
2021/03/03 04:24:39;;;;;;;21.83;9.25;;;8.20;99.90;;;;;;5094650;28;20024;-78
2021/03/03 04:27:05;;;;;;;21.02;9.07;;;8.30;99.90;;;;;;5094337;28;20031;-78
2021/03/03 04:29:31;;;;;;;17.60;9.27;;;8.30;99.90;;;;;;5094328;28;20045;-78
2021/03/03 04:31:57;;;;;;;20.38;9.77;;;8.40;99.90;;;;;;5094804;28;20479;-78
2021/03/03 04:34:23;;;;;;;19.42;10.18;;;8.40;99.90;;;;;;5094115;28;20032;-78
2021/03/03 04:36:49;;;;;;;21.67;9.82;;;8.40;99.90;;;;;;5076151;28;20357;-78
2021/03/03 04:39:15;;;;;;;19.00;9.82;;;8.40;99.90;;;;;;5092968;28;20047;-79
2021/03/03 04:41:41;;;;;;;20.48;9.00;;;8.40;99.90;;;;;;5092947;28;20031;-78
2021/03/03 04:44:07;;;;;;;21.42;9.88;;;8.40;99.90;;;;;;5094073;28;20031;-78
2021/03/03 04:46:33;;;;;;;17.13;8.63;;;8.40;99.90;;;;;;5094052;28;20028;-78
2021/03/03 04:48:58;;;;;;;22.63;10.35;;;8.40;99.90;;;;;;5093750;28;20020;-78
2021/03/03 04:51:24;;;;;;;16.58;9.27;;;8.40;99.90;;;;;;5092772;28;20423;-79
2021/03/03 04:53:50;;;;;;;23.35;10.73;;;8.40;99.90;;;;;;5094024;28;20024;-79
2021/03/03 04:56:16;;;;;;;17.48;9.90;;;8.40;99.90;;;;;;5093780;28;20118;-79
2021/03/03 04:58:42;;;;;;;23.42;10.20;;;8.40;99.90;;;;;;5093553;28;20044;-78
2021/03/03 05:01:08;;;;;;;21.58;9.65;;;8.30;99.90;;;;;;5092479;28;20093;-79
2021/03/03 05:03:34;;;;;;;19.88;10.02;;;8.30;99.90;;;;;;5093688;28;20024;-78
2021/03/03 05:06:00;;;;;;;15.52;10.15;;;8.30;99.90;;;;;;5092484;28;20480;-78
2021/03/03 05:08:26;;;;;;;20.70;10.27;;;8.20;99.90;;;;;;5093790;28;20034;-78
2021/03/03 05:10:52;;;;;;;18.45;9.73;;;8.20;99.90;;;;;;5092527;28;20120;-79
2021/03/03 05:13:18;;;;;;;17.58;9.90;;;8.20;99.90;;;;;;5092250;28;20078;-79
2021/03/03 05:15:44;;;;;;;22.35;10.70;;;8.20;99.90;;;;;;5093734;28;20111;-79
2021/03/03 05:18:10;;;;;;;32.15;12.23;;;8.20;99.90;;;;;;5093347;28;20389;-79
2021/03/03 05:20:39;;;;;;;20.15;9.60;;;8.20;99.90;;;;;;5092305;28;20032;-79
2021/03/03 05:23:05;;;;;;;21.92;9.82;;;8.20;99.90;;;;;;5093393;28;20110;-79
2021/03/03 05:25:33;;;;;;;27.08;11.00;;;8.20;99.90;;;;;;5092082;28;20031;-79
2021/03/03 05:28:00;;;;;;;20.15;9.77;;;8.20;99.90;;;;;;5092000;28;20393;-79
2021/03/03 05:30:27;;;;;;;22.17;10.57;;;8.20;99.90;;;;;;5092070;28;20035;-79
2021/03/03 05:32:53;;;;;;;18.52;10.45;;;8.20;99.90;;;;;;5093345;28;20032;-80
2021/03/03 05:35:19;;;;;;;26.65;10.55;;;8.20;99.90;;;;;;5093104;28;20472;-79
2021/03/03 05:37:46;;;;;;;23.27;10.10;;;8.20;99.90;;;;;;5091911;28;20032;-79
2021/03/03 05:40:13;;;;;;;20.20;11.07;;;8.20;99.90;;;;;;5093304;28;20100;-81
2021/03/03 05:42:39;;;;;;;29.27;11.88;;;8.20;99.90;;;;;;5093300;28;20503;-80
2021/03/03 05:45:08;;;;;;;24.02;11.00;;;8.20;99.90;;;;;;5093564;28;20059;-80
2021/03/03 05:47:36;;;;;;;24.88;10.57;;;8.30;99.90;;;;;;5092238;28;20450;-80
2021/03/03 05:50:06;;;;;;;20.67;9.75;;;8.30;99.90;;;;;;5091977;28;20042;-80
2021/03/03 05:52:33;;;;;;;31.15;11.80;;;8.30;99.90;;;;;;5092963;28;20028;-80
2021/03/03 05:55:04;;;;;;;21.58;11.63;;;8.40;99.90;;;;;;5092870;28;20074;-80
2021/03/03 05:57:32;;;;;;;22.85;10.75;;;8.50;99.90;;;;;;5092925;28;20079;-80
2021/03/03 06:00:00;;;;;;;21.50;11.10;;;8.60;99.90;;;;;;5092720;28;20093;-81
2021/03/03 06:02:27;;;;;;;22.95;11.77;;;8.60;99.90;;;;;;5091106;28;20028;-81
2021/03/03 06:04:54;;;;;;;24.23;11.35;;;8.60;99.90;;;;;;5074813;28;20043;-82
2021/03/03 06:07:22;;;;;;;22.73;12.07;;;8.70;99.90;;;;;;5092672;28;20111;-80
2021/03/03 06:09:48;;;;;;;23.65;11.15;;;8.70;99.90;;;;;;5091508;28;20783;-81
2021/03/03 06:12:14;;;;;;;20.00;10.32;;;8.80;99.90;;;;;;5092654;28;20016;-80
2021/03/03 06:14:40;;;;;;;20.35;11.63;;;8.90;99.90;;;;;;5092603;28;20024;-80
2021/03/03 06:17:07;;;;;;;22.30;12.02;;;8.90;99.90;;;;;;5091330;28;20166;-79
2021/03/03 06:19:33;;;;;;;20.63;10.60;;;9.00;99.90;;;;;;5092511;28;20043;-79
2021/03/03 06:22:26;;;;;;;26.58;12.88;;;9.00;99.90;;;;;;5091423;28;20105;-79
2021/03/03 06:24:56;;;;;;;24.65;11.75;;;9.10;99.90;;;;;;5085893;28;20040;-77
2021/03/03 06:27:24;;;;;;;24.40;11.75;;;9.20;99.90;;;;;;5092528;28;20024;-80
2021/03/03 06:30:15;;;;;;;27.90;11.10;;;9.20;99.90;;;;;;5091179;28;20123;-78
2021/03/03 06:33:18;;;;;;;25.38;12.73;;;9.30;99.90;;;;;;5091128;28;20211;-78
2021/03/03 06:35:48;;;;;;;25.35;12.70;;;9.40;99.90;;;;;;5089353;28;20028;-77
2021/03/03 06:38:16;;;;;;;22.55;11.18;;;9.50;99.90;;;;;;5092268;28;20036;-77
2021/03/03 06:40:49;;;;;;;19.80;11.50;;;9.50;99.90;;;;;;5091226;28;20041;-77
2021/03/03 06:43:32;;;;;;;23.00;11.30;;;9.60;99.90;;;;;;5091202;28;20540;-77
2021/03/03 06:46:16;;;;;;;24.10;11.45;;;9.70;99.90;;;;;;5092328;28;20115;-78
2021/03/03 06:48:43;;;;;;;23.23;11.02;;;9.80;99.90;;;;;;5092458;28;20032;-78
2021/03/03 06:51:31;;;;;;;22.13;11.52;;;9.80;99.90;;;;;;5092271;28;20024;-77
2021/03/03 06:54:04;;;;;;;22.92;11.85;;;9.90;99.90;;;;;;5092228;28;20028;-77
2021/03/03 06:56:38;;;;;;;20.95;10.68;;;9.90;99.90;;;;;;5092074;28;20027;-77
2021/03/03 06:59:23;;;;;;;22.58;11.35;;;10.10;99.90;;;;;;5092183;28;20094;-78
2021/03/03 07:01:55;;;;;;;25.05;11.70;;;10.10;99.90;;;;;;5092444;28;20020;-78
2021/03/03 07:04:24;;;;;;;25.50;11.65;;;10.20;99.90;;;;;;5092559;28;20028;-78
2021/03/03 07:06:55;;;;;;;23.08;11.07;;;10.20;99.90;;;;;;5092325;28;20024;-78
2021/03/03 07:09:24;;;;;;;25.40;12.38;;;10.30;99.90;;;;;;5092304;28;20024;-78
2021/03/03 07:12:00;;;;;;;27.38;12.70;;;10.30;99.90;;;;;;5092626;28;20024;-78
2021/03/03 07:14:26;;;;;;;21.45;10.68;;;10.40;99.90;;;;;;5095928;28;20030;-80
2021/03/03 07:17:05;;;;;;;20.13;10.15;;;10.50;99.90;;;;;;5095968;28;20107;-80
2021/03/03 07:19:32;;;;;;;27.02;11.00;;;10.50;99.90;;;;;;5095640;28;20039;-78
2021/03/03 07:21:58;;;;;;;20.60;11.52;;;10.60;99.90;;;;;;5096046;28;20032;-78
2021/03/03 07:24:25;;;;;;;24.92;10.52;;;10.70;99.90;;;;;;5094403;28;20485;-77
2021/03/03 07:26:52;;;;;;;19.52;9.38;;;10.80;99.90;;;;;;5095719;28;20028;-77
2021/03/03 07:29:18;;;;;;;22.52;9.73;;;10.80;99.90;;;;;;5094182;28;20025;-78
2021/03/03 07:31:44;;;;;;;18.85;9.63;;;10.80;99.90;;;;;;5095506;28;20035;-78
2021/03/03 07:34:11;;;;;;;18.77;9.43;;;11.00;99.90;;;;;;5095564;28;20485;-78
2021/03/03 07:36:38;;;;;;;21.77;9.43;;;11.00;99.90;;;;;;5095511;28;20027;-79
2021/03/03 07:39:09;;;;;;;19.17;9.38;;;11.10;99.90;;;;;;5095230;28;20119;-77
2021/03/03 07:41:47;;;;;;;32.45;15.63;;;11.10;99.90;;;;;;5095262;28;20024;-78
2021/03/03 07:44:18;;;;;;;25.95;9.60;;;11.30;99.90;;;;;;5095344;28;20028;-78
2021/03/03 07:46:47;;;;;;;19.52;9.32;;;11.30;99.90;;;;;;5094240;28;20030;-78
2021/03/03 07:49:17;;;;;;;17.10;9.23;;;11.40;99.90;;;;;;5095286;28;20024;-78
2021/03/03 07:51:44;;;;;;;15.68;8.45;;;11.40;99.90;;;;;;5095185;28;20031;-79
2021/03/03 07:54:13;;;;;;;18.00;9.00;;;11.40;99.90;;;;;;5095046;28;20031;-78
2021/03/03 07:56:41;;;;;;;18.95;9.18;;;11.50;99.90;;;;;;5094928;28;20454;-80
2021/03/03 07:59:08;;;;;;;24.45;10.43;;;11.60;99.90;;;;;;5093753;28;20035;-78
2021/03/03 08:01:35;;;;;;;13.77;7.32;;;11.60;99.90;;;;;;5093703;28;20031;-79
2021/03/03 08:04:02;;;;;;;17.98;8.95;;;11.70;99.90;;;;;;5094822;28;20020;-78
2021/03/03 08:06:37;;;;;;;15.38;7.38;;;11.80;99.90;;;;;;5094964;28;20052;-78
2021/03/03 08:09:06;;;;;;;11.82;6.50;;;12.00;99.90;;;;;;5094785;28;20107;-80
2021/03/03 08:11:36;;;;;;;17.33;5.07;;;12.20;99.90;;;;;;5094781;28;20036;-79
2021/03/03 08:14:23;;;;;;;12.68;5.80;;;12.20;99.90;;;;;;5094696;28;20025;-78
2021/03/03 08:16:58;;;;;;;10.60;5.70;;;12.40;99.90;;;;;;5094639;28;20059;-79
2021/03/03 08:19:50;;;;;;;10.90;6.28;;;12.50;99.90;;;;;;5094810;28;20032;-81
2021/03/03 08:22:17;;;;;;;12.75;5.35;;;12.50;99.90;;;;;;5094554;28;20020;-80
2021/03/03 08:24:43;;;;;;;8.05;4.90;;;12.50;99.90;;;;;;5093979;28;20027;-79
2021/03/03 08:27:35;;;;;;;17.80;5.90;;;12.50;99.90;;;;;;5093174;28;20036;-80
2021/03/03 08:30:18;;;;;;;11.50;5.93;;;12.60;99.90;;;;;;5094639;28;20401;-79
2021/03/03 08:32:44;;;;;;;13.18;5.18;;;12.70;99.90;;;;;;5093235;28;20025;-79
2021/03/03 08:35:11;;;;;;;10.35;4.97;;;12.80;99.90;;;;;;5094198;28;20073;-80
2021/03/03 08:37:38;;;;;;;13.57;5.93;;;12.80;99.90;;;;;;5094432;28;20427;-80
2021/03/03 08:40:26;;;;;;;11.40;5.30;;;13.10;99.90;;;;;;5094138;28;20032;-80
2021/03/03 08:42:53;;;;;;;7.00;3.40;;;13.30;99.90;;;;;;5094146;28;20020;-79
2021/03/03 08:45:20;;;;;;;8.05;4.38;;;13.20;99.90;;;;;;5094076;28;20494;-80
2021/03/03 08:47:56;;;;;;;11.20;6.53;;;13.00;99.90;;;;;;5092781;28;20056;-80
2021/03/03 08:50:36;;;;;;;10.27;4.93;;;13.00;99.90;;;;;;5093974;28;20036;-80
2021/03/03 08:53:21;;;;;;;8.18;5.28;;;13.10;99.90;;;;;;5075704;28;20473;-79
2021/03/03 08:55:48;;;;;;;11.98;5.15;;;13.30;99.90;;;;;;5094016;28;20119;-79
2021/03/03 08:58:32;;;;;;;8.30;4.57;;;13.40;99.90;;;;;;5093729;28;20488;-80
2021/03/03 09:00:59;;;;;;;12.10;5.43;;;13.40;99.90;;;;;;5093772;28;20028;-79
2021/03/03 09:03:26;;;;;;;15.60;5.57;;;13.40;99.90;;;;;;5093631;28;20553;-78
2021/03/03 09:05:55;;;;;;;11.90;5.47;;;13.40;99.90;;;;;;5093907;28;20066;-79
2021/03/03 09:08:22;;;;;;;15.05;5.68;;;13.30;99.90;;;;;;5093682;28;20081;-79
2021/03/03 09:10:49;;;;;;;9.82;4.88;;;13.20;99.90;;;;;;5093644;28;20499;-80
2021/03/03 09:13:28;;;;;;;7.45;4.95;;;13.30;99.90;;;;;;5092194;28;20542;-79
2021/03/03 09:16:03;;;;;;;8.98;5.15;;;13.30;99.90;;;;;;5093545;28;20073;-79
2021/03/03 09:18:29;;;;;;;13.48;5.20;;;13.50;99.90;;;;;;5093317;28;20032;-79
2021/03/03 09:21:04;;;;;;;10.85;5.47;;;13.50;99.90;;;;;;5093698;28;20032;-82
2021/03/03 09:23:30;;;;;;;10.18;5.40;;;13.60;99.90;;;;;;5093433;28;20047;-78
2021/03/03 09:25:56;;;;;;;9.80;5.55;;;13.70;99.90;;;;;;5093458;28;20429;-79
2021/03/03 09:28:41;;;;;;;10.15;4.43;;;13.70;99.90;;;;;;5093404;28;20032;-82
2021/03/03 09:31:07;;;;;;;9.57;4.65;;;13.80;99.90;;;;;;5092083;28;20384;-79
2021/03/03 09:33:34;;;;;;;10.00;4.45;;;13.70;99.90;;;;;;5093487;28;20039;-79
2021/03/03 09:36:00;;;;;;;10.27;5.05;;;13.50;99.90;;;;;;5091827;28;20392;-80
2021/03/03 09:38:30;;;;;;;8.70;4.85;;;13.50;99.90;;;;;;5091791;28;20040;-79
2021/03/03 09:40:56;;;;;;;11.68;4.90;;;13.50;99.90;;;;;;5092995;28;20028;-81
2021/03/03 09:43:22;;;;;;;7.93;4.07;;;13.60;99.90;;;;;;5093275;28;20033;-79
2021/03/03 09:45:55;;;;;;;12.63;4.60;;;13.60;99.90;;;;;;5091741;28;20498;-81
2021/03/03 09:48:30;;;;;;;9.00;3.95;;;13.70;99.90;;;;;;5092926;28;20063;-82
2021/03/03 09:50:58;;;;;;;8.57;4.07;;;13.70;99.90;;;;;;5092995;28;20535;-81
2021/03/03 09:53:23;;;;;;;7.57;4.65;;;14.10;99.90;;;;;;5091567;28;20035;-79
2021/03/03 09:55:49;;;;;;;9.45;4.75;;;14.20;99.90;;;;;;5092707;28;20028;-81
2021/03/03 09:58:15;;;;;;;8.03;4.03;;;14.60;99.90;;;;;;5091296;28;20052;-80
2021/03/03 10:00:42;;;;;;;5.25;3.47;;;14.80;99.90;;;;;;5092940;28;20269;-82
2021/03/03 10:03:12;;;;;;;6.35;3.90;;;14.90;99.90;;;;;;5092751;28;20495;-79
2021/03/03 10:05:38;;;;;;;9.13;4.50;;;14.80;99.90;;;;;;5092677;28;20776;-82
2021/03/03 10:08:12;;;;;;;7.53;4.00;;;14.90;99.90;;;;;;5092747;28;20095;-79
2021/03/03 10:10:46;;;;;;;6.40;3.45;;;15.00;99.90;;;;;;5092716;28;20047;-82
2021/03/03 10:13:21;;;;;;;11.35;3.67;;;15.10;99.90;;;;;;5092579;28;20023;-81
2021/03/03 10:15:47;;;;;;;7.40;3.95;;;15.20;99.90;;;;;;5092752;28;20121;-80
2021/03/03 10:18:13;;;;;;;7.30;3.88;;;15.50;99.90;;;;;;5091177;28;20477;-79
2021/03/03 10:20:56;;;;;;;16.00;4.88;;;15.60;99.90;;;;;;5092555;28;20069;-80
2021/03/03 10:23:26;;;;;;;;;;;15.50;99.90;;;;;;5093059;28;20024;-79
2021/03/03 10:25:59;;;;;;;6.20;3.20;;;15.30;99.90;;;;;;5092625;28;19919;-80
2021/03/03 10:28:27;;;;;;;8.88;4.03;;;15.40;99.90;;;;;;5092665;28;20089;-82
2021/03/03 10:30:56;;;;;;;15.93;4.95;;;15.50;99.90;;;;;;5092666;28;20103;-79
2021/03/03 10:33:25;;;;;;;9.35;3.90;;;15.50;99.90;;;;;;5074320;28;20115;-80
2021/03/03 10:35:53;;;;;;;8.68;4.22;;;15.70;99.90;;;;;;5092556;28;20081;-81
2021/03/03 10:38:20;;;;;;;8.27;3.55;;;16.00;99.90;;;;;;5092587;28;20032;-82
2021/03/03 10:40:48;;;;;;;6.45;3.55;;;15.70;99.90;;;;;;5092548;28;20050;-79
2021/03/03 10:43:17;;;;;;;8.95;4.22;;;15.70;99.90;;;;;;5092385;28;20056;-80
2021/03/03 10:45:44;;;;;;;10.30;3.35;;;15.70;99.90;;;;;;5092339;28;20032;-80
2021/03/03 10:48:26;;;;;;;9.52;4.20;;;15.90;99.90;;;;;;5095131;28;20028;-79
2021/03/03 10:50:52;;;;;;;8.65;4.00;;;16.00;99.90;;;;;;5095209;28;20042;-80
2021/03/03 10:53:19;;;;;;;10.95;3.75;;;16.10;99.90;;;;;;5096194;28;20035;-80
2021/03/03 10:55:45;;;;;;;10.60;4.78;;;16.00;99.90;;;;;;5096250;28;20122;-79
2021/03/03 10:58:15;;;;;;;13.27;4.70;;;15.70;99.90;;;;;;5095970;28;20535;-79
2021/03/03 11:00:55;;;;;;;8.15;4.13;;;15.50;99.90;;;;;;5095099;28;20044;-80
2021/03/03 11:03:21;;;;;;;15.85;4.68;;;15.50;99.90;;;;;;5096106;28;20067;-80
2021/03/03 11:05:55;;;;;;;11.15;4.95;;;15.30;99.90;;;;;;5094830;28;20035;-79
2021/03/03 11:08:22;;;;;;;9.10;3.75;;;15.50;99.90;;;;;;5095935;28;20086;-79
2021/03/03 11:10:49;;;;;;;11.35;5.10;;;15.70;99.90;;;;;;5095928;28;20012;-79
2021/03/03 11:13:15;;;;;;;11.15;4.88;;;15.60;99.90;;;;;;5095962;28;20024;-80
2021/03/03 11:15:42;;;;;;;9.23;4.70;;;15.30;99.90;;;;;;5095858;28;20028;-79
2021/03/03 11:18:09;;;;;;;9.38;4.72;;;15.60;99.90;;;;;;5095604;28;20086;-80
2021/03/03 11:20:36;;;;;;;11.50;4.05;;;15.50;99.90;;;;;;5094410;28;20032;-79
2021/03/03 11:23:03;;;;;;;10.13;4.25;;;15.40;99.90;;;;;;5095603;28;20027;-81
2021/03/03 11:25:29;;;;;;;12.77;5.18;;;15.50;99.90;;;;;;5094292;28;20028;-79
2021/03/03 11:27:55;;;;;;;8.32;4.10;;;15.50;99.90;;;;;;5095590;28;20115;-79
2021/03/03 11:30:21;;;;;;;7.55;3.83;;;15.80;99.90;;;;;;5095630;28;20115;-80
2021/03/03 11:32:47;;;;;;;6.13;4.10;;;16.10;99.90;;;;;;5095603;28;20034;-80
2021/03/03 11:35:14;;;;;;;6.60;3.80;;;16.20;99.90;;;;;;5095443;28;20027;-80
2021/03/03 11:37:39;;;;;;;13.55;6.05;;;15.90;99.90;;;;;;5095535;28;20095;-81
2021/03/03 11:40:06;;;;;;;8.40;4.05;;;16.30;99.90;;;;;;5095475;28;20036;-80
2021/03/03 11:42:32;;;;;;;6.65;4.07;;;16.00;99.90;;;;;;5094110;28;20043;-79
2021/03/03 11:44:58;;;;;;;8.52;4.07;;;15.80;99.90;;;;;;5095450;28;20024;-80
2021/03/03 11:47:23;;;;;;;12.33;4.67;;;15.80;99.90;;;;;;5095231;28;20380;-80
2021/03/03 11:49:49;;;;;;;8.93;4.07;;;16.20;99.90;;;;;;5093994;28;20361;-81
2021/03/03 11:52:15;;;;;;;8.00;4.37;;;16.50;99.90;;;;;;5095180;28;20047;-81
2021/03/03 11:54:41;;;;;;;12.88;4.85;;;16.50;99.90;;;;;;5095031;28;20028;-80
2021/03/03 11:57:07;;;;;;;13.73;4.70;;;16.70;99.90;;;;;;5094867;28;20052;-79
2021/03/03 11:59:33;;;;;;;5.03;3.22;;;16.80;99.90;;;;;;5094198;28;20119;-79
2021/03/03 12:02:00;;;;;;;5.93;3.72;;;17.20;99.90;;;;;;5093643;28;20046;-82
2021/03/03 12:04:25;;;;;;;9.60;3.78;;;17.00;99.90;;;;;;5095053;28;20484;-80
2021/03/03 12:06:51;;;;;;;16.13;8.47;;;16.90;99.90;;;;;;5095039;28;20103;-81
2021/03/03 12:09:17;;;;;;;10.50;4.75;;;17.00;99.90;;;;;;5094913;28;20282;-79
2021/03/03 12:11:43;;;;;;;10.35;4.65;;;17.00;99.90;;;;;;5094829;28;20486;-80
2021/03/03 12:14:09;;;;;;;9.05;4.60;;;16.90;99.90;;;;;;5094790;28;20017;-80
2021/03/03 12:16:35;;;;;;;5.97;3.22;;;17.00;99.90;;;;;;5093432;28;20388;-80
2021/03/03 12:19:01;;;;;;;9.70;4.13;;;16.90;99.90;;;;;;5094494;28;20032;-80
2021/03/03 12:21:27;;;;;;;12.15;3.90;;;17.10;99.90;;;;;;5094539;28;20023;-80
2021/03/03 12:23:53;;;;;;;11.98;4.22;;;16.90;99.90;;;;;;5094785;28;20040;-81
2021/03/03 12:26:19;;;;;;;12.27;4.60;;;16.70;99.90;;;;;;5094591;28;20107;-80
2021/03/03 12:28:45;;;;;;;9.17;5.03;;;16.90;99.90;;;;;;5094692;28;20031;-79
2021/03/03 12:31:12;;;;;;;8.50;4.35;;;16.70;99.90;;;;;;5094401;28;20343;-81
2021/03/03 12:33:41;;;;;;;14.52;6.13;;;16.30;99.90;;;;;;5094376;28;20048;-81
2021/03/03 12:36:07;;;;;;;9.95;4.47;;;16.50;99.90;;;;;;5094273;28;20426;-79
2021/03/03 12:38:35;;;;;;;8.75;4.65;;;16.70;99.90;;;;;;5094237;28;20108;-79
2021/03/03 12:41:01;;;;;;;10.32;4.75;;;17.00;99.90;;;;;;5094077;28;20028;-79
2021/03/03 12:43:27;;;;;;;8.88;4.25;;;17.20;99.90;;;;;;5094257;28;20016;-80
2021/03/03 12:45:53;;;;;;;9.85;5.03;;;17.20;99.90;;;;;;5094245;28;20032;-81
2021/03/03 12:48:19;;;;;;;7.80;3.95;;;17.40;99.90;;;;;;5094015;28;20378;-81
2021/03/03 12:50:45;;;;;;;7.00;4.30;;;17.50;99.90;;;;;;5094018;28;20019;-79